createdAt,value
2022-08-12T00:01:06.452Z,2.45
2022-08-12T00:03:51.923Z,2.33
2022-08-12T00:06:41.255Z,2.65
2022-08-12T00:09:27.655Z,2.50
2022-08-12T00:12:14.842Z,2.50
2022-08-12T00:15:02.582Z,2.78
2022-08-12T00:17:49.221Z,2.78
2022-08-12T00:20:35.311Z,2.88
2022-08-12T00:23:21.309Z,3.03
2022-08-12T00:26:22.257Z,2.77
2022-08-12T00:29:14.029Z,3.15
2022-08-12T00:32:01.721Z,3.05
2022-08-12T00:34:51.992Z,3.30
2022-08-12T00:37:43.321Z,2.90
2022-08-12T00:40:32.113Z,2.73
2022-08-12T00:43:00.282Z,2.95
2022-08-12T00:45:47.564Z,3.30
2022-08-12T00:48:15.522Z,2.88
2022-08-12T00:50:43.249Z,3.38
2022-08-12T00:53:10.333Z,3.27
2022-08-12T00:55:39.584Z,3.33
2022-08-12T00:58:07.365Z,2.88
2022-08-12T01:00:35.776Z,2.75
2022-08-12T01:03:05.921Z,3.40
2022-08-12T01:05:52.284Z,3.10
2022-08-12T01:08:37.806Z,2.83
2022-08-12T01:11:23.492Z,3.00
2022-08-12T01:13:51.034Z,3.80
2022-08-12T01:16:24.422Z,3.10
2022-08-12T01:18:56.201Z,3.17
2022-08-12T01:22:03.776Z,2.85
2022-08-12T01:24:54.306Z,3.35
2022-08-12T01:27:23.437Z,3.10
2022-08-12T01:29:53.932Z,3.42
2022-08-12T01:32:23.756Z,3.70
2022-08-12T01:35:03.279Z,3.78
2022-08-12T01:37:36.720Z,3.20
2022-08-12T01:40:33.787Z,3.38
2022-08-12T01:42:59.049Z,3.47
2022-08-12T01:45:29.489Z,3.13
2022-08-12T01:48:26.171Z,3.15
2022-08-12T01:52:21.160Z,3.30
2022-08-12T01:54:29.977Z,3.60
2022-08-12T01:57:13.516Z,3.10
2022-08-12T01:59:50.497Z,3.43
2022-08-12T02:02:32.029Z,3.47
2022-08-12T02:05:26.459Z,3.50
2022-08-12T02:08:28.617Z,3.75
2022-08-12T02:11:23.045Z,3.67
2022-08-12T02:14:41.947Z,3.80
2022-08-12T02:17:55.235Z,3.92
2022-08-12T02:20:53.213Z,3.67
2022-08-12T02:23:28.989Z,3.85
2022-08-12T02:26:04.228Z,4.25
2022-08-12T02:28:31.192Z,3.93
2022-08-12T02:31:04.820Z,4.50
2022-08-12T02:33:33.652Z,4.18
2022-08-12T02:36:02.634Z,4.38
2022-08-12T02:38:31.278Z,4.90
2022-08-12T02:41:02.981Z,4.37
2022-08-12T02:43:41.572Z,4.35
2022-08-12T02:46:15.046Z,4.10
2022-08-12T02:48:48.006Z,4.47
2022-08-12T02:51:20.324Z,4.70
2022-08-12T02:54:04.591Z,4.70
2022-08-12T02:56:37.558Z,4.90
2022-08-12T02:59:05.629Z,4.50
2022-08-12T03:01:35.543Z,4.88
2022-08-12T03:04:21.141Z,4.05
2022-08-12T03:07:14.644Z,4.77
2022-08-12T03:10:07.129Z,4.57
2022-08-12T03:12:49.827Z,4.43
2022-08-12T03:15:23.867Z,4.55
2022-08-12T03:18:28.875Z,4.78
2022-08-12T03:20:59.374Z,5.40
2022-08-12T03:23:30.606Z,4.80
2022-08-12T03:26:01.689Z,4.78
2022-08-12T03:28:50.278Z,4.72
2022-08-12T03:31:22.161Z,5.35
2022-08-12T03:34:00.550Z,5.10
2022-08-12T03:36:34.705Z,4.82
2022-08-12T03:39:18.997Z,5.03
2022-08-12T03:42:06.069Z,5.43
2022-08-12T03:44:57.437Z,4.82
2022-08-12T03:48:01.300Z,5.10
2022-08-12T03:50:47.200Z,5.40
2022-08-12T03:53:41.081Z,5.72
2022-08-12T03:56:26.425Z,5.18
2022-08-12T03:59:14.062Z,4.55
2022-08-12T04:01:41.577Z,5.03
2022-08-12T04:04:11.606Z,5.05
2022-08-12T04:06:46.852Z,5.07
2022-08-12T04:09:15.608Z,4.97
2022-08-12T04:12:04.421Z,5.82
2022-08-12T04:14:33.367Z,5.77
2022-08-12T04:17:01.321Z,5.30
2022-08-12T04:19:29.371Z,5.45
2022-08-12T04:22:02.457Z,5.68
2022-08-12T04:24:34.898Z,5.03
2022-08-12T04:27:08.335Z,5.30
2022-08-12T04:30:30.891Z,5.68
2022-08-12T04:32:27.683Z,5.30
2022-08-12T04:34:55.564Z,5.07
2022-08-12T04:37:23.159Z,5.20
2022-08-12T04:39:50.534Z,5.80
2022-08-12T04:42:17.508Z,5.38
2022-08-12T04:44:44.972Z,4.80
2022-08-12T04:47:16.794Z,5.88
2022-08-12T04:49:46.246Z,5.65
2022-08-12T04:52:15.159Z,5.80
2022-08-12T04:54:43.690Z,5.88
2022-08-12T04:57:10.905Z,5.68
2022-08-12T04:59:46.504Z,5.78
2022-08-12T05:02:22.163Z,6.32
2022-08-12T05:05:00.567Z,5.33
2022-08-12T05:07:28.113Z,5.72
2022-08-12T05:10:00.586Z,5.85
2022-08-12T05:12:40.123Z,6.25
2022-08-12T05:15:19.410Z,6.03
2022-08-12T05:17:55.863Z,6.27
2022-08-12T05:20:25.905Z,6.28
2022-08-12T05:23:16.813Z,6.65
2022-08-12T05:25:46.786Z,6.50
2022-08-12T05:28:16.034Z,6.43
2022-08-12T05:30:44.994Z,6.30
2022-08-12T05:33:14.727Z,6.40
2022-08-12T05:35:44.803Z,6.45
2022-08-12T05:38:36.215Z,6.93
2022-08-12T05:41:06.693Z,6.00
2022-08-12T05:43:36.079Z,5.80
2022-08-12T05:46:03.107Z,6.07
2022-08-12T05:48:30.920Z,6.47
2022-08-12T05:50:57.865Z,6.70
2022-08-12T05:53:24.772Z,6.05
2022-08-12T05:55:53.842Z,7.20
2022-08-12T05:58:21.167Z,6.60
2022-08-12T06:00:48.545Z,6.40
2022-08-12T06:03:17.339Z,6.50
2022-08-12T06:05:55.119Z,6.82
2022-08-12T06:08:24.804Z,7.23
2022-08-12T06:10:52.614Z,6.97
2022-08-12T06:13:25.754Z,6.63
2022-08-12T06:15:56.184Z,7.18
2022-08-12T06:18:27.854Z,7.82
2022-08-12T06:21:01.646Z,7.17
2022-08-12T06:23:29.987Z,7.03
2022-08-12T06:25:57.819Z,6.72
2022-08-12T06:28:25.689Z,6.75
2022-08-12T06:31:15.292Z,6.75
2022-08-12T06:34:00.710Z,6.97
2022-08-12T06:36:32.672Z,7.60
2022-08-12T06:39:01.343Z,7.15
2022-08-12T06:42:30.967Z,7.20
2022-08-12T06:44:34.373Z,7.65
2022-08-12T06:47:01.373Z,7.40
2022-08-12T06:49:33.403Z,6.57
2022-08-12T06:52:00.315Z,7.43
2022-08-12T06:54:31.722Z,6.88
2022-08-12T06:57:57.856Z,6.18
2022-08-12T06:59:50.320Z,6.67
2022-08-12T07:02:19.644Z,6.82
2022-08-12T07:04:48.044Z,7.35
2022-08-12T07:07:15.456Z,6.82
2022-08-12T07:10:04.859Z,6.45
2022-08-12T07:12:31.191Z,6.30
2022-08-12T07:15:01.433Z,6.82
2022-08-12T07:17:37.094Z,6.80
2022-08-12T07:20:29.613Z,6.70
2022-08-12T07:23:02.530Z,6.40
2022-08-12T07:25:40.664Z,6.20
2022-08-12T07:28:33.561Z,5.90
2022-08-12T07:31:04.177Z,5.55
2022-08-12T07:33:32.877Z,6.03
2022-08-12T07:36:02.310Z,5.93
2022-08-12T07:38:35.736Z,6.33
2022-08-12T07:41:15.500Z,6.20
2022-08-12T07:43:58.228Z,6.35
2022-08-12T07:46:40.686Z,5.88
2022-08-12T07:49:15.774Z,6.15
2022-08-12T07:51:44.571Z,5.37
2022-08-12T07:54:12.856Z,5.35
2022-08-12T07:56:42.759Z,5.93
2022-08-12T07:59:10.798Z,5.30
2022-08-12T08:01:38.693Z,5.30
2022-08-12T08:04:25.563Z,5.27
2022-08-12T08:06:53.707Z,5.53
2022-08-12T08:09:23.949Z,5.20
2022-08-12T08:12:18.484Z,5.57
2022-08-12T08:14:46.960Z,5.85
2022-08-12T08:17:17.307Z,5.27
2022-08-12T08:20:02.044Z,4.93
2022-08-12T08:22:41.620Z,5.15
2022-08-12T08:25:34.517Z,5.15
2022-08-12T08:28:22.809Z,4.88
2022-08-12T08:30:50.570Z,5.40
2022-08-12T08:33:23.492Z,4.90
2022-08-12T08:36:02.223Z,4.80
2022-08-12T08:38:32.958Z,4.38
2022-08-12T08:42:19.188Z,4.30
2022-08-12T08:44:12.040Z,4.60
2022-08-12T08:46:43.545Z,4.32
2022-08-12T08:49:11.657Z,4.68
2022-08-12T08:51:39.778Z,4.45
2022-08-12T08:54:08.603Z,4.70
2022-08-12T08:56:52.201Z,4.60
2022-08-12T08:59:20.265Z,4.03
2022-08-12T09:01:48.270Z,4.07
2022-08-12T09:05:09.924Z,4.85
2022-08-12T09:07:17.069Z,4.50
2022-08-12T09:10:02.243Z,4.60
2022-08-12T09:15:37.043Z,4.10
2022-08-12T09:18:08.793Z,3.80
2022-08-12T09:20:39.158Z,4.00
2022-08-12T09:23:57.020Z,3.60
2022-08-12T09:25:58.210Z,3.47
2022-08-12T09:28:32.817Z,3.80
2022-08-12T09:31:00.775Z,3.40
2022-08-12T09:34:27.409Z,3.58
2022-08-12T09:36:31.076Z,3.60
2022-08-12T09:40:01.670Z,3.85
2022-08-12T09:42:38.658Z,3.30
2022-08-12T09:45:24.026Z,3.35
2022-08-12T09:47:59.136Z,3.35
2022-08-12T09:50:28.004Z,4.27
2022-08-12T09:53:35.913Z,3.13
2022-08-12T09:56:39.539Z,3.90
2022-08-12T09:58:58.638Z,4.68
2022-08-12T10:01:35.647Z,4.78
2022-08-12T10:04:19.535Z,5.10
2022-08-12T10:06:54.845Z,3.63
2022-08-12T10:09:28.748Z,6.10
2022-08-12T10:12:31.445Z,4.07
2022-08-12T10:15:00.753Z,2.80
2022-08-12T10:17:27.909Z,4.00
2022-08-12T10:19:54.837Z,4.95
2022-08-12T10:22:38.890Z,3.95
2022-08-12T10:26:10.026Z,3.72
2022-08-12T10:28:35.727Z,3.95
2022-08-12T10:31:04.986Z,4.60
2022-08-12T10:33:34.396Z,3.53
2022-08-12T10:36:21.770Z,2.58
2022-08-12T10:40:01.480Z,2.75
2022-08-12T10:42:14.788Z,6.68
2022-08-12T10:44:42.938Z,3.17
2022-08-12T10:47:25.991Z,3.00
2022-08-12T10:50:23.751Z,2.70
2022-08-12T10:52:56.660Z,2.25
2022-08-12T10:55:24.556Z,2.55
2022-08-12T10:58:14.637Z,2.60
2022-08-12T11:00:45.196Z,3.22
2022-08-12T11:04:26.471Z,2.65
2022-08-12T11:07:08.560Z,4.30
2022-08-12T11:09:00.349Z,2.50
2022-08-12T11:12:35.930Z,3.90
2022-08-12T11:14:50.541Z,2.35
2022-08-12T11:17:34.127Z,2.75
2022-08-12T11:20:02.328Z,2.47
2022-08-12T11:22:32.247Z,2.13
2022-08-12T11:24:59.462Z,2.40
2022-08-12T11:27:26.352Z,3.42
2022-08-12T11:30:05.444Z,2.30
2022-08-12T11:32:38.897Z,2.60
2022-08-12T11:35:08.103Z,2.45
2022-08-12T11:37:59.155Z,2.53
2022-08-12T11:40:24.432Z,2.70
2022-08-12T11:42:52.826Z,2.25
2022-08-12T11:45:20.065Z,3.30
2022-08-12T11:47:46.999Z,2.15
2022-08-12T11:50:19.459Z,2.20
2022-08-12T11:53:02.377Z,2.15
2022-08-12T11:55:29.908Z,2.20
2022-08-12T11:58:40.554Z,2.38
2022-08-12T12:03:43.769Z,2.47
2022-08-12T12:06:17.011Z,2.30
2022-08-12T12:08:52.787Z,2.45
2022-08-12T12:11:21.822Z,2.08
2022-08-12T12:14:08.202Z,1.95
2022-08-12T12:16:38.141Z,2.20
2022-08-12T12:19:06.966Z,2.83
2022-08-12T12:21:47.213Z,2.83
2022-08-12T12:24:21.419Z,2.30
2022-08-12T12:27:00.780Z,2.40
2022-08-12T12:30:17.820Z,2.13
2022-08-12T12:32:16.875Z,2.30
2022-08-12T12:35:14.369Z,2.22
2022-08-12T12:38:05.517Z,2.20
2022-08-12T12:40:20.389Z,2.20
2022-08-12T12:42:55.634Z,2.40
2022-08-12T12:45:25.892Z,2.72
2022-08-12T12:48:05.680Z,2.63
2022-08-12T12:50:45.121Z,2.30
2022-08-12T12:54:07.187Z,2.15
2022-08-12T12:56:21.011Z,2.40
2022-08-12T12:59:03.628Z,2.22
2022-08-12T13:01:36.341Z,2.15
2022-08-12T13:04:08.195Z,2.05
2022-08-12T13:06:41.807Z,2.53
2022-08-12T13:09:13.280Z,2.60
2022-08-12T13:11:44.537Z,2.00
2022-08-12T13:14:28.925Z,2.15
2022-08-12T13:17:01.208Z,2.50
2022-08-12T13:19:38.722Z,2.10
2022-08-12T13:22:18.190Z,2.50
2022-08-12T13:24:46.292Z,2.10
2022-08-12T13:27:20.631Z,2.40
2022-08-12T13:29:48.855Z,2.33
2022-08-12T13:32:28.437Z,2.50
2022-08-12T13:35:04.003Z,2.07
2022-08-12T13:37:54.716Z,2.40
2022-08-12T13:40:30.804Z,2.47
2022-08-12T13:43:01.690Z,2.40
2022-08-12T13:45:31.356Z,2.05
2022-08-12T13:48:05.390Z,2.40
2022-08-12T13:50:38.825Z,2.30
2022-08-12T13:53:24.856Z,2.45
2022-08-12T13:56:02.019Z,2.03
2022-08-12T13:58:30.958Z,2.30
2022-08-12T14:01:05.280Z,1.90
2022-08-12T14:03:50.026Z,2.33
2022-08-12T14:06:18.104Z,2.38
2022-08-12T14:08:49.635Z,2.60
2022-08-12T14:11:19.028Z,2.67
2022-08-12T14:14:03.191Z,2.83
2022-08-12T14:16:46.760Z,2.17
2022-08-12T14:19:24.242Z,2.30
2022-08-12T14:22:00.563Z,2.70
2022-08-12T14:24:40.711Z,2.50
2022-08-12T14:27:10.269Z,2.77
2022-08-12T14:30:05.798Z,2.60
2022-08-12T14:32:34.171Z,3.25
2022-08-12T14:35:01.107Z,2.60
2022-08-12T14:37:57.534Z,2.40
2022-08-12T14:40:18.211Z,2.73
2022-08-12T14:42:46.914Z,2.60
2022-08-12T14:45:14.470Z,2.17
2022-08-12T14:47:58.345Z,2.30
2022-08-12T14:50:37.589Z,2.33
2022-08-12T14:55:38.573Z,2.80
2022-08-12T14:59:20.467Z,2.80
2022-08-12T15:01:52.063Z,2.70
2022-08-12T15:04:28.510Z,2.65
2022-08-12T15:06:56.307Z,2.80
2022-08-12T15:09:29.265Z,2.55
2022-08-12T15:12:03.842Z,2.58
2022-08-12T15:14:32.304Z,2.75
2022-08-12T15:17:02.717Z,2.85
2022-08-12T15:20:28.304Z,2.50
2022-08-12T15:22:38.132Z,2.38
2022-08-12T15:25:08.032Z,3.22
2022-08-12T15:28:03.972Z,2.42
2022-08-12T15:30:31.264Z,3.03
2022-08-12T15:32:59.172Z,3.87
2022-08-12T15:35:31.476Z,2.53
2022-08-12T15:38:14.749Z,3.40
2022-08-12T15:40:48.441Z,2.90
2022-08-12T15:43:51.607Z,3.10
2022-08-12T15:46:06.093Z,2.90
2022-08-12T15:48:34.204Z,2.97
2022-08-12T15:51:02.858Z,3.50
2022-08-12T15:53:53.232Z,2.88
2022-08-12T15:56:29.857Z,2.88
2022-08-12T15:59:00.594Z,2.63
2022-08-12T16:01:35.594Z,2.47
2022-08-12T16:04:05.450Z,3.03
2022-08-12T16:09:56.466Z,2.72
2022-08-12T16:12:12.112Z,2.63
2022-08-12T16:14:39.740Z,2.95
2022-08-12T16:17:08.945Z,2.85
2022-08-12T16:20:03.804Z,2.78
2022-08-12T16:22:24.381Z,2.70
2022-08-12T16:24:54.053Z,2.60
2022-08-12T16:27:23.642Z,4.35
2022-08-12T16:29:57.277Z,2.90
2022-08-12T16:32:31.482Z,3.15
2022-08-12T16:34:59.872Z,2.65
2022-08-12T16:38:25.684Z,3.80
2022-08-12T16:40:20.268Z,2.67
2022-08-12T16:42:54.178Z,2.50
2022-08-12T16:46:05.531Z,2.60
2022-08-12T16:48:35.073Z,3.10
2022-08-12T16:51:12.570Z,2.80
2022-08-12T16:53:43.761Z,7.15
2022-08-12T16:56:14.666Z,2.97
2022-08-12T16:58:43.356Z,2.63
2022-08-12T17:01:16.287Z,2.50
2022-08-12T17:03:52.608Z,2.40
2022-08-12T17:06:27.800Z,2.33
2022-08-12T17:09:03.052Z,2.50
2022-08-12T17:11:33.006Z,2.70
2022-08-12T17:14:01.486Z,2.20
2022-08-12T17:16:29.929Z,2.37
2022-08-12T17:18:59.704Z,2.20
2022-08-12T17:21:41.487Z,2.70
2022-08-12T17:24:21.293Z,2.60
2022-08-12T17:26:48.499Z,3.03
2022-08-12T17:29:31.978Z,2.50
2022-08-12T17:32:10.383Z,2.40
2022-08-12T17:34:56.160Z,2.38
2022-08-12T17:37:23.279Z,2.53
2022-08-12T17:40:14.849Z,2.60
2022-08-12T17:42:38.406Z,3.00
2022-08-12T17:45:18.416Z,2.38
2022-08-12T17:48:04.654Z,2.17
2022-08-12T17:50:36.646Z,2.42
2022-08-12T17:53:04.540Z,2.60
2022-08-12T17:55:33.605Z,2.40
2022-08-12T17:58:12.885Z,2.53
2022-08-12T18:00:45.504Z,2.05
2022-08-12T18:03:57.527Z,2.38
2022-08-12T18:06:08.522Z,2.60
2022-08-12T18:08:36.329Z,2.93
2022-08-12T18:12:04.341Z,3.03
2022-08-12T18:14:09.189Z,2.95
2022-08-12T18:16:41.595Z,2.97
2022-08-12T18:19:10.551Z,2.90
2022-08-12T18:22:02.316Z,3.00
2022-08-12T18:24:29.619Z,2.90
2022-08-12T18:26:57.103Z,2.50
2022-08-12T18:29:27.166Z,2.40
2022-08-12T18:32:43.874Z,2.60
2022-08-12T18:34:58.333Z,2.40
2022-08-12T18:37:41.650Z,2.78
2022-08-12T18:40:29.283Z,3.20
2022-08-12T18:42:59.207Z,2.92
2022-08-12T18:45:31.433Z,2.92
2022-08-12T18:48:16.502Z,3.07
2022-08-12T18:50:48.992Z,2.83
2022-08-12T18:54:06.458Z,2.78
2022-08-12T18:56:05.063Z,2.70
2022-08-12T18:58:59.314Z,3.38
2022-08-12T19:02:19.183Z,2.80
2022-08-12T19:04:15.584Z,2.95
2022-08-12T19:06:45.794Z,2.83
2022-08-12T19:09:15.328Z,2.83
2022-08-12T19:12:01.580Z,3.22
2022-08-12T19:14:28.855Z,3.07
2022-08-12T19:17:00.959Z,2.88
2022-08-12T19:19:28.423Z,3.22
2022-08-12T19:22:08.697Z,3.40
2022-08-12T19:24:54.371Z,3.10
2022-08-12T19:27:21.458Z,3.40
2022-08-12T19:30:07.208Z,3.67
2022-08-12T19:32:36.337Z,3.58
2022-08-12T19:38:03.500Z,3.40
2022-08-12T19:40:35.401Z,3.40
2022-08-12T19:43:20.104Z,3.72
2022-08-12T19:45:54.357Z,3.97
2022-08-12T19:48:30.318Z,3.72
2022-08-12T19:50:57.989Z,3.63
2022-08-12T19:53:27.709Z,3.70
2022-08-12T19:55:57.272Z,4.28
2022-08-12T19:58:25.670Z,3.75
2022-08-12T20:00:55.215Z,3.53
2022-08-12T20:03:38.937Z,4.10
2022-08-12T20:06:13.660Z,3.40
2022-08-12T20:08:48.721Z,4.07
2022-08-12T20:12:09.126Z,3.70
2022-08-12T20:14:06.243Z,3.40
2022-08-12T20:16:57.727Z,3.80
2022-08-12T20:19:53.182Z,5.27
2022-08-12T20:22:24.477Z,4.90
2022-08-12T20:24:57.101Z,4.35
2022-08-12T20:27:28.623Z,3.72
2022-08-12T20:29:55.862Z,4.22
2022-08-12T20:32:29.603Z,3.97
2022-08-12T20:34:56.809Z,4.07
2022-08-12T20:38:06.517Z,4.07
2022-08-12T20:40:14.053Z,3.80
2022-08-12T20:42:42.164Z,3.83
2022-08-12T20:45:09.635Z,4.10
2022-08-12T20:47:46.325Z,4.00
2022-08-12T20:50:14.625Z,4.50
2022-08-12T20:52:45.395Z,4.43
2022-08-12T20:55:15.840Z,4.00
2022-08-12T20:58:02.225Z,4.10
2022-08-12T21:00:31.906Z,4.20
2022-08-12T21:03:20.047Z,3.70
2022-08-12T21:06:11.725Z,4.00
2022-08-12T21:08:40.168Z,3.97
2022-08-12T21:11:09.477Z,3.80
2022-08-12T21:13:39.266Z,4.18
2022-08-12T21:16:09.976Z,3.72
2022-08-12T21:18:38.038Z,4.30
2022-08-12T21:21:06.552Z,4.03
2022-08-12T21:23:37.335Z,4.13
2022-08-12T21:26:11.379Z,3.70
2022-08-12T21:28:44.089Z,3.35
2022-08-12T21:32:36.233Z,3.63
2022-08-12T21:34:17.821Z,3.63
2022-08-12T21:36:52.732Z,3.40
2022-08-12T21:39:35.071Z,3.35
2022-08-12T21:42:06.824Z,3.22
2022-08-12T21:45:44.074Z,3.45
2022-08-12T21:47:24.500Z,3.67
2022-08-12T21:50:03.784Z,3.40
2022-08-12T21:52:42.267Z,3.47
2022-08-12T21:55:18.119Z,3.30
2022-08-12T21:57:54.008Z,3.45
2022-08-12T22:00:34.432Z,3.13
2022-08-12T22:04:03.352Z,3.03
2022-08-12T22:06:31.553Z,3.17
2022-08-12T22:09:16.670Z,3.42
2022-08-12T22:11:56.467Z,3.33
2022-08-12T22:14:30.074Z,3.50
2022-08-12T22:17:00.466Z,3.67
2022-08-12T22:19:27.650Z,3.50
2022-08-12T22:21:58.561Z,3.10
2022-08-12T22:24:30.353Z,3.08
2022-08-12T22:27:08.278Z,3.25
2022-08-12T22:30:04.410Z,3.30
2022-08-12T22:32:31.331Z,3.20
2022-08-12T22:35:22.295Z,3.42
2022-08-12T22:37:53.438Z,3.17
2022-08-12T22:40:22.716Z,3.10
2022-08-12T22:43:15.359Z,3.70
2022-08-12T22:46:01.767Z,5.75
2022-08-12T22:48:30.532Z,7.55
2022-08-12T22:50:59.325Z,10.18
2022-08-12T22:53:36.295Z,8.43
2022-08-12T22:56:07.174Z,7.83
2022-08-12T22:58:41.295Z,7.82
2022-08-12T23:01:11.060Z,7.13
2022-08-12T23:03:46.963Z,8.10
2022-08-12T23:06:23.529Z,6.82
2022-08-12T23:08:51.836Z,8.20
2022-08-12T23:11:23.677Z,7.72
2022-08-12T23:14:01.648Z,6.45
2022-08-12T23:16:33.988Z,5.80
2022-08-12T23:19:10.428Z,5.28
2022-08-12T23:22:04.870Z,4.23
2022-08-12T23:24:55.541Z,4.43
2022-08-12T23:27:51.600Z,4.60
2022-08-12T23:30:32.173Z,5.25
2022-08-12T23:33:13.014Z,6.20
2022-08-12T23:35:58.980Z,6.80
2022-08-12T23:38:32.454Z,6.05
2022-08-12T23:41:03.621Z,4.95
2022-08-12T23:43:41.055Z,4.82
2022-08-12T23:46:19.505Z,5.05
2022-08-12T23:48:50.458Z,6.63
2022-08-12T23:51:26.656Z,7.47
2022-08-12T23:54:06.993Z,7.85
2022-08-12T23:56:38.728Z,8.30
2022-08-12T23:59:10.907Z,9.13
